Flight Track Log - Related Links

Times and Time Zones

All times are in EDT time to prevent confusion due to time zone crossing. See the EJA583 flight status page for this flight to view local times or setup timezone preferences in your user account.

Time Position Orientation Groundspeed Altitude Reporting Facility
EDT Latitude Longitude Course Direction KTS MPH feet Rate Location/Type
Wed 12:33:22 PM 44.0508 -103.0636 301° West 164 189 3,600  Level Denver Center
Wed 12:34:22 PM 44.0800 -103.1322 301° West 232 267 6,900 3,078 Climbing Denver Center
Wed 12:35:17 PM 44.0789 -103.2189 269° West 283 326 9,500 2,754 Climbing Denver Center
Wed 12:35:23 PM 44.0789 -103.2267 270° West 287 330 9,700 2,476 Climbing Denver Center
Wed 12:36:20 PM 44.0700 -103.3317 263° West 295 339 12,100 2,672 Climbing Denver Center
Wed 12:37:22 PM 44.0553 -103.4619 261° West 306 352 15,000 2,516 Climbing Denver Center
Wed 12:38:24 PM 44.0433 -103.5747 262° West 309 356 17,300 2,032 Climbing Denver Center
Wed 12:39:26 PM 44.0306 -103.7197 263° West 327 376 19,200 1,887 Climbing Denver Center
Wed 12:40:28 PM 44.0169 -103.8478 262° West 343 395 21,200 2,129 Climbing Denver Center
Wed 12:41:30 PM 44.0017 -103.9986 262° West 351 404 23,600 1,935 Climbing Denver Center
Wed 12:42:32 PM 43.9881 -104.1244 261° West 348 400 25,200 1,500 Climbing Denver Center
Wed 12:43:34 PM 43.9708 -104.2861 262° West 368 423 26,700 1,403 Climbing Denver Center
Wed 12:44:36 PM 43.9561 -104.4231 262° West 374 430 28,100 1,306 Climbing Denver Center
Wed 12:45:38 PM 43.9406 -104.5583 261° West 375 432 29,400 1,403 Climbing Denver Center
Wed 12:46:40 PM 43.9236 -104.7178 262° West 374 430 31,000 1,403 Climbing Denver Center
Wed 12:47:42 PM 43.9086 -104.8539 261° West 374 430 32,300 1,403 Climbing Denver Center
Wed 12:48:44 PM 43.8903 -105.0122 261° West 374 430 33,900 823 Climbing Denver Center
Wed 12:49:46 PM 43.8744 -105.1522 261° West 381 438 34,000 48 Climbing Denver Center
Wed 12:50:48 PM 43.8536 -105.3272 261° West 403 464 34,000  Level Denver Center
Wed 12:51:51 PM 43.8367 -105.4811 261° West 415 478 34,000  Level Denver Center
Wed 12:52:53 PM 43.8153 -105.6517 260° West 410 472 34,000  Level Denver Center
Wed 12:53:55 PM 43.7992 -105.7917 261° West 396 456 34,000  Level Denver Center
Wed 12:54:57 PM 43.7781 -105.9542 260° West 387 445 34,000  Level Denver Center
Wed 12:55:59 PM 43.7606 -106.0919 260° West 382 440 34,000  Level Denver Center
Wed 12:57:01 PM 43.7419 -106.2494 261° West 374 430 34,000  Level Denver Center
Wed 12:58:03 PM 43.7236 -106.3836 259° West 372 428 34,000  Level Denver Center
Wed 12:59:05 PM 43.7042 -106.5411 260° West 372 428 34,000  Level Denver Center
Wed 01:00:07 PM 43.6858 -106.6753 259° West 373 429 34,000  Level Denver Center
Wed 01:01:09 PM 43.6689 -106.8297 261° West 366 421 34,000  Level Denver Center
Wed 01:02:05 PM 43.6664 -106.9494 268° West 373 429 34,000  Level Salt Lake Center
Wed 01:03:07 PM 43.6661 -107.0931 270° West 375 432 34,000  Level Salt Lake Center
Wed 01:04:09 PM 43.6661 -107.2381 270° West 378 435 34,000  Level Salt Lake Center
Wed 01:05:11 PM 43.6653 -107.4128 270° West 380 437 34,000  Level Salt Lake Center
Wed 01:06:13 PM 43.6650 -107.5597 270° West 382 440 34,000  Level Salt Lake Center
Wed 01:07:15 PM 43.6644 -107.7078 270° West 385 443 34,000  Level Salt Lake Center
Wed 01:08:17 PM 43.6631 -107.8561 269° West 388 447 34,000  Level Salt Lake Center
Wed 01:09:19 PM 43.6622 -108.0047 270° West 388 447 34,000  Level Salt Lake Center
Wed 01:10:21 PM 43.6617 -108.1536 270° West 389 448 34,000  Level Salt Lake Center
Wed 01:11:23 PM 43.6594 -108.3339 269° West 391 450 34,000  Level Salt Lake Center
Wed 01:12:25 PM 43.6575 -108.4836 269° West 391 450 34,000  Level Salt Lake Center
Wed 01:13:27 PM 43.6556 -108.6344 269° West 393 452 34,000 -48 Level Salt Lake Center
Wed 01:14:29 PM 43.6531 -108.7853 269° West 394 453 33,900 -1,597 Descending Salt Lake Center
Wed 01:15:31 PM 43.6508 -108.9419 269° West 407 468 30,700 -3,194 Descending Salt Lake Center
Wed 01:16:33 PM 43.6442 -109.1028 267° West 418 481 27,300 -3,629 Descending Salt Lake Center
Wed 01:17:35 PM 43.6397 -109.2928 268° West 414 476 23,200 -3,629 Descending Salt Lake Center
Wed 01:18:37 PM 43.6364 -109.4461 268° West 405 466 19,800 -3,145 Descending Salt Lake Center
Wed 01:19:39 PM 43.6322 -109.6006 268° West 397 457 16,700 -1,790 Descending Salt Lake Center
Wed 01:20:41 PM 43.6289 -109.7447 268° West 395 455 16,100 -339 Descending Salt Lake Center
Wed 01:21:43 PM 43.6239 -109.9064 268° West 383 441 16,000 -726 Descending Salt Lake Center
Wed 01:22:45 PM 43.6217 -110.0500 269° West 377 434 14,600 -968 Descending Salt Lake Center
Wed 01:23:47 PM 43.6175 -110.1922 268° West 374 430 14,000 -290 Descending Salt Lake Center
Wed 01:24:49 PM 43.6125 -110.3317 267° West 368 423 14,000  Level Salt Lake Center
Wed 01:25:51 PM 43.6056 -110.4425 265° West 295 339 14,000  Level Salt Lake Center
Wed 01:26:53 PM 43.5975 -110.5325 263° West 244 281 14,000 -1,161 Level Salt Lake Center
Wed 01:27:55 PM 43.5556 -110.6111 234° Southwest 215 247 11,600 -2,468 Descending Salt Lake Center
Wed 01:28:57 PM 43.5506 -110.6853 265° West 204 235 8,900 -2,129 Descending Salt Lake Center
Wed 01:29:59 PM 43.5608 -110.7494 282° West 183 211 7,200 -1,065 Descending Salt Lake Center
Wed 01:31:01 PM 43.5956 -110.7428 North 151 174 6,700 -484 Descending Salt Lake Center

Login

Don't have an account? Register now (free) for customized features, flight alerts, and more!